createdAt,value
2018-08-25T00:02:19.343Z,100157.00
2018-08-25T00:04:48.632Z,100147.00
2018-08-25T00:07:17.827Z,100146.00
2018-08-25T00:09:47.100Z,100145.00
2018-08-25T00:12:16.356Z,100149.00
2018-08-25T00:14:46.003Z,100146.00
2018-08-25T00:17:15.292Z,100138.00
2018-08-25T00:19:44.619Z,100144.00
2018-08-25T00:22:13.950Z,100144.00
2018-08-25T00:24:43.224Z,100133.00
2018-08-25T00:27:12.524Z,100134.00
2018-08-25T00:29:41.812Z,100126.00
2018-08-25T00:32:11.058Z,100126.00
2018-08-25T00:34:40.263Z,100126.00
2018-08-25T00:37:09.520Z,100123.00
2018-08-25T00:39:38.803Z,100121.00
2018-08-25T00:42:08.119Z,100117.00
2018-08-25T00:44:37.436Z,100117.00
2018-08-25T00:47:06.686Z,100106.00
2018-08-25T00:49:35.974Z,100103.00
2018-08-25T00:52:05.226Z,100101.00
2018-08-25T00:54:34.460Z,100094.00
2018-08-25T00:57:03.698Z,100093.00
2018-08-25T00:59:32.985Z,100085.00
2018-08-25T01:02:02.316Z,100083.00
2018-08-25T01:04:31.637Z,100073.00
2018-08-25T01:07:00.951Z,100075.00
2018-08-25T01:09:30.232Z,100067.00
2018-08-25T01:11:59.453Z,100074.00
2018-08-25T01:14:28.714Z,100074.00
2018-08-25T01:16:57.935Z,100069.00
2018-08-25T01:19:27.544Z,100055.00
2018-08-25T01:21:56.827Z,100065.00
2018-08-25T01:24:26.073Z,100061.00
2018-08-25T01:26:55.311Z,100054.00
2018-08-25T01:29:24.539Z,100067.00
2018-08-25T01:31:53.767Z,100055.00
2018-08-25T01:34:23.048Z,100059.00
2018-08-25T01:36:52.394Z,100054.00
2018-08-25T01:39:21.643Z,100059.00
2018-08-25T01:41:50.895Z,100061.00
2018-08-25T01:44:20.150Z,100062.00
2018-08-25T01:46:49.362Z,100056.00
2018-08-25T01:49:18.680Z,100055.00
2018-08-25T01:51:47.933Z,100062.00
2018-08-25T01:54:17.254Z,100058.00
2018-08-25T01:56:46.574Z,100053.00
2018-08-25T01:59:15.850Z,100054.00
2018-08-25T02:01:45.123Z,100047.00
2018-08-25T02:04:14.450Z,100040.00
2018-08-25T02:06:43.666Z,100044.00
2018-08-25T02:09:14.539Z,100048.00
2018-08-25T02:11:43.710Z,100035.00
2018-08-25T02:14:13.014Z,100038.00
2018-08-25T02:16:42.419Z,100040.00
2018-08-25T02:19:11.700Z,100035.00
2018-08-25T02:21:40.930Z,100041.00
2018-08-25T02:24:10.164Z,100027.00
2018-08-25T02:26:39.350Z,100031.00
2018-08-25T02:29:08.678Z,100024.00
2018-08-25T02:31:37.911Z,100031.00
2018-08-25T02:34:07.190Z,100009.00
2018-08-25T02:36:36.487Z,100015.00
2018-08-25T02:39:10.522Z,100006.00
2018-08-25T02:41:40.843Z,100002.00
2018-08-25T02:44:10.153Z,99997.00
2018-08-25T02:46:39.412Z,99995.00
2018-08-25T02:49:08.757Z,99987.00
2018-08-25T02:51:38.048Z,99982.00
2018-08-25T02:54:07.476Z,99992.00
2018-08-25T02:56:42.739Z,99990.00
2018-08-25T02:59:12.050Z,99980.00
2018-08-25T03:01:41.299Z,99972.00
2018-08-25T03:04:10.543Z,99979.00
2018-08-25T03:06:39.876Z,99965.00
2018-08-25T03:09:11.251Z,99956.00
2018-08-25T03:11:40.523Z,99958.00
2018-08-25T03:14:09.722Z,99956.00
2018-08-25T03:16:39.003Z,99948.00
2018-08-25T03:19:08.319Z,99949.00
2018-08-25T03:21:37.557Z,99948.00
2018-08-25T03:24:06.911Z,99950.00
2018-08-25T03:26:36.290Z,99944.00
2018-08-25T03:29:06.000Z,99940.00
2018-08-25T03:31:35.260Z,99942.00
2018-08-25T03:34:04.531Z,99929.00
2018-08-25T03:36:33.787Z,99927.00
2018-08-25T03:39:03.035Z,99919.00
2018-08-25T03:41:32.270Z,99924.00
2018-08-25T03:44:01.548Z,99919.00
2018-08-25T03:46:30.875Z,99921.00
2018-08-25T03:49:00.136Z,99923.00
2018-08-25T03:51:29.402Z,99924.00
2018-08-25T03:53:58.650Z,99924.00
2018-08-25T03:56:28.019Z,99915.00
2018-08-25T03:58:59.340Z,99918.00
2018-08-25T04:01:28.691Z,99915.00
2018-08-25T04:03:57.928Z,99919.00
2018-08-25T04:06:27.270Z,99927.00
2018-08-25T04:08:56.576Z,99928.00
2018-08-25T04:11:25.806Z,99942.00
2018-08-25T04:13:55.116Z,99961.00
2018-08-25T04:16:24.455Z,99964.00
2018-08-25T04:18:53.699Z,99949.00
2018-08-25T04:21:22.941Z,99949.00
2018-08-25T04:23:52.244Z,99941.00
2018-08-25T04:26:21.518Z,99946.00
2018-08-25T04:28:50.834Z,99936.00
2018-08-25T04:31:20.103Z,99935.00
2018-08-25T04:33:49.355Z,99929.00
2018-08-25T04:36:18.750Z,99929.00
2018-08-25T04:38:47.991Z,99933.00
2018-08-25T04:41:17.330Z,99930.00
2018-08-25T04:43:46.559Z,99924.00
2018-08-25T04:46:15.856Z,99921.00
2018-08-25T04:48:45.102Z,99931.00
2018-08-25T04:51:14.798Z,99927.00
2018-08-25T04:53:44.233Z,99934.00
2018-08-25T04:56:13.494Z,99934.00
2018-08-25T04:58:42.843Z,99925.00
2018-08-25T05:01:12.099Z,99921.00
2018-08-25T05:03:41.370Z,99919.00
2018-08-25T05:06:10.707Z,99919.00
2018-08-25T05:08:40.179Z,99922.00
2018-08-25T05:11:09.503Z,99930.00
2018-08-25T05:13:39.280Z,99927.00
2018-08-25T05:16:08.531Z,99923.00
2018-08-25T05:18:37.675Z,99925.00
2018-08-25T05:21:06.953Z,99927.00
2018-08-25T05:23:36.200Z,99930.00
2018-08-25T05:26:05.486Z,99924.00
2018-08-25T05:28:34.807Z,99914.00
2018-08-25T05:31:04.140Z,99912.00
2018-08-25T05:33:33.467Z,99919.00
2018-08-25T05:36:02.759Z,99906.00
2018-08-25T05:38:32.126Z,99916.00
2018-08-25T05:41:01.379Z,99915.00
2018-08-25T05:43:30.653Z,99912.00
2018-08-25T05:45:59.890Z,99906.00
2018-08-25T05:48:34.354Z,99910.00
2018-08-25T05:51:03.643Z,99907.00
2018-08-25T05:53:32.943Z,99910.00
2018-08-25T05:56:02.296Z,99907.00
2018-08-25T05:58:31.514Z,99902.00
2018-08-25T06:01:00.829Z,99908.00
2018-08-25T06:03:30.108Z,99904.00
2018-08-25T06:05:59.410Z,99897.00
2018-08-25T06:08:28.704Z,99896.00
2018-08-25T06:10:57.925Z,99896.00
2018-08-25T06:13:27.181Z,99895.00
2018-08-25T06:15:56.470Z,99897.00
2018-08-25T06:18:25.715Z,99898.00
2018-08-25T06:20:54.915Z,99893.00
2018-08-25T06:23:26.239Z,99896.00
2018-08-25T06:25:55.620Z,99892.00
2018-08-25T06:28:24.959Z,99887.00
2018-08-25T06:30:54.244Z,99893.00
2018-08-25T06:33:23.490Z,99901.00
2018-08-25T06:35:52.861Z,99897.00
2018-08-25T06:38:22.111Z,99897.00
2018-08-25T06:40:51.852Z,99893.00
2018-08-25T06:43:21.072Z,99898.00
2018-08-25T06:45:55.517Z,99903.00
2018-08-25T06:48:24.915Z,99909.00
2018-08-25T06:50:54.172Z,99908.00
2018-08-25T06:53:23.537Z,99904.00
2018-08-25T06:55:53.778Z,99917.00
2018-08-25T06:58:23.413Z,99914.00
2018-08-25T07:00:53.303Z,99916.00
2018-08-25T07:03:22.611Z,99918.00
2018-08-25T07:05:51.874Z,99923.00
2018-08-25T07:08:21.137Z,99914.00
2018-08-25T07:10:50.479Z,99925.00
2018-08-25T07:13:19.672Z,99917.00
2018-08-25T07:15:48.878Z,99916.00
2018-08-25T07:18:18.180Z,99917.00
2018-08-25T07:20:47.431Z,99930.00
2018-08-25T07:23:16.636Z,99923.00
2018-08-25T07:25:45.924Z,99924.00
2018-08-25T07:28:15.196Z,99935.00
2018-08-25T07:30:44.471Z,99934.00
2018-08-25T07:33:13.792Z,99932.00
2018-08-25T07:35:43.451Z,99939.00
2018-08-25T07:38:12.828Z,99936.00
2018-08-25T07:40:41.988Z,99936.00
2018-08-25T07:43:11.200Z,99943.00
2018-08-25T07:45:40.513Z,99957.00
2018-08-25T07:48:09.814Z,99947.00
2018-08-25T07:50:39.194Z,99958.00
2018-08-25T07:53:08.728Z,99961.00
2018-08-25T07:55:38.121Z,99953.00
2018-08-25T07:58:07.422Z,99961.00
2018-08-25T08:00:36.722Z,99965.00
2018-08-25T08:03:06.396Z,99968.00
2018-08-25T08:05:35.704Z,99956.00
2018-08-25T08:08:04.902Z,99953.00
2018-08-25T08:10:34.164Z,99963.00
2018-08-25T08:13:03.430Z,99964.00
2018-08-25T08:15:33.131Z,99972.00
2018-08-25T08:18:02.364Z,99964.00
2018-08-25T08:20:31.628Z,99976.00
2018-08-25T08:23:00.921Z,99973.00
2018-08-25T08:25:30.344Z,99978.00
2018-08-25T08:27:59.563Z,99980.00
2018-08-25T08:30:28.862Z,99973.00
2018-08-25T08:32:58.239Z,99975.00
2018-08-25T08:35:27.548Z,99987.00
2018-08-25T08:37:56.892Z,99988.00
2018-08-25T08:40:26.151Z,99978.00
2018-08-25T08:42:55.418Z,99992.00
2018-08-25T08:45:24.931Z,99989.00
2018-08-25T08:47:54.718Z,99992.00
2018-08-25T08:50:25.197Z,100006.00
2018-08-25T08:52:54.454Z,100016.00
2018-08-25T08:55:23.875Z,100023.00
2018-08-25T08:57:53.140Z,100044.00
2018-08-25T09:00:22.562Z,100038.00
2018-08-25T09:02:56.021Z,100051.00
2018-08-25T09:05:25.300Z,100054.00
2018-08-25T09:07:54.659Z,100067.00
2018-08-25T09:10:24.103Z,100063.00
2018-08-25T09:13:05.107Z,100058.00
2018-08-25T09:15:34.614Z,100055.00
2018-08-25T09:18:08.900Z,100070.00
2018-08-25T09:20:38.317Z,100066.00
2018-08-25T09:23:09.217Z,100067.00
2018-08-25T09:25:41.954Z,100066.00
2018-08-25T09:28:17.206Z,100065.00
2018-08-25T09:30:49.636Z,100076.00
2018-08-25T09:33:19.995Z,100074.00
2018-08-25T09:35:49.332Z,100067.00
2018-08-25T09:38:18.772Z,100064.00
2018-08-25T09:40:48.383Z,100066.00
2018-08-25T09:43:17.676Z,100061.00
2018-08-25T09:45:47.372Z,100061.00
2018-08-25T09:48:17.975Z,100064.00
2018-08-25T09:50:47.333Z,100066.00
2018-08-25T09:53:16.655Z,100059.00
2018-08-25T09:55:45.964Z,100070.00
2018-08-25T09:58:15.334Z,100053.00
2018-08-25T10:00:45.980Z,100063.00
2018-08-25T10:03:15.322Z,100080.00
2018-08-25T10:05:44.568Z,100075.00
2018-08-25T10:08:13.885Z,100077.00
2018-08-25T10:10:43.165Z,100081.00
2018-08-25T10:13:19.024Z,100085.00
2018-08-25T10:15:48.899Z,100100.00
2018-08-25T10:18:20.886Z,100089.00
2018-08-25T10:20:55.527Z,100079.00
2018-08-25T10:23:25.168Z,100092.00
2018-08-25T10:25:54.448Z,100085.00
2018-08-25T10:28:23.843Z,100088.00
2018-08-25T10:30:53.111Z,100090.00
2018-08-25T10:33:22.914Z,100084.00
2018-08-25T10:35:52.365Z,100095.00
2018-08-25T10:38:21.611Z,100092.00
2018-08-25T10:40:51.211Z,100086.00
2018-08-25T10:43:20.743Z,100101.00
2018-08-25T10:45:50.299Z,100102.00
2018-08-25T10:48:19.576Z,100098.00
2018-08-25T10:50:48.975Z,100110.00
2018-08-25T10:53:18.288Z,100112.00
2018-08-25T10:55:47.661Z,100106.00
2018-08-25T10:58:16.930Z,100103.00
2018-08-25T11:00:48.769Z,100096.00
2018-08-25T11:03:17.923Z,100105.00
2018-08-25T11:05:47.219Z,100102.00
2018-08-25T11:08:16.586Z,100103.00
2018-08-25T11:10:45.937Z,100123.00
2018-08-25T11:13:15.247Z,100116.00
2018-08-25T11:15:44.631Z,100124.00
2018-08-25T11:18:13.920Z,100124.00
2018-08-25T11:20:43.360Z,100118.00
2018-08-25T11:23:12.742Z,100116.00
2018-08-25T11:25:42.571Z,100114.00
2018-08-25T11:28:12.068Z,100120.00
2018-08-25T11:30:41.360Z,100117.00
2018-08-25T11:33:10.699Z,100127.00
2018-08-25T11:35:40.208Z,100118.00
2018-08-25T11:38:09.828Z,100123.00
2018-08-25T11:40:39.272Z,100117.00
2018-08-25T11:43:08.616Z,100115.00
2018-08-25T11:45:37.912Z,100124.00
2018-08-25T11:48:07.182Z,100119.00
2018-08-25T11:50:36.969Z,100115.00
2018-08-25T11:53:06.523Z,100122.00
2018-08-25T11:55:35.776Z,100124.00
2018-08-25T11:58:05.101Z,100123.00
2018-08-25T12:00:34.318Z,100121.00
2018-08-25T12:03:03.835Z,100130.00
2018-08-25T12:05:32.984Z,100120.00
2018-08-25T12:08:02.327Z,100112.00
2018-08-25T12:10:31.623Z,100120.00
2018-08-25T12:13:01.024Z,100124.00
2018-08-25T12:15:30.245Z,100140.00
2018-08-25T12:17:59.630Z,100120.00
2018-08-25T12:20:28.955Z,100135.00
2018-08-25T12:22:58.246Z,100139.00
2018-08-25T12:25:27.736Z,100137.00
2018-08-25T12:27:57.276Z,100128.00
2018-08-25T12:30:26.737Z,100132.00
2018-08-25T12:32:56.015Z,100130.00
2018-08-25T12:35:25.397Z,100131.00
2018-08-25T12:37:54.644Z,100129.00
2018-08-25T12:40:23.923Z,100121.00
2018-08-25T12:42:53.190Z,100127.00
2018-08-25T12:45:22.458Z,100129.00
2018-08-25T12:47:51.792Z,100133.00
2018-08-25T12:50:21.160Z,100131.00
2018-08-25T12:52:50.392Z,100131.00
2018-08-25T12:55:19.710Z,100138.00
2018-08-25T12:57:49.034Z,100124.00
2018-08-25T13:00:18.447Z,100141.00
2018-08-25T13:02:47.806Z,100143.00
2018-08-25T13:05:17.096Z,100153.00
2018-08-25T13:07:50.250Z,100177.00
2018-08-25T13:10:26.179Z,100162.00
2018-08-25T13:12:55.523Z,100173.00
2018-08-25T13:15:28.764Z,100164.00
2018-08-25T13:17:58.043Z,100161.00
2018-08-25T13:20:27.371Z,100165.00
2018-08-25T13:22:56.658Z,100153.00
2018-08-25T13:25:25.960Z,100152.00
2018-08-25T13:27:55.227Z,100161.00
2018-08-25T13:30:30.567Z,100159.00
2018-08-25T13:32:59.828Z,100167.00
2018-08-25T13:35:29.507Z,100175.00
2018-08-25T13:38:00.905Z,100186.00
2018-08-25T13:40:30.435Z,100192.00
2018-08-25T13:42:59.697Z,100186.00
2018-08-25T13:45:29.152Z,100192.00
2018-08-25T13:47:58.457Z,100195.00
2018-08-25T13:50:27.761Z,100197.00
2018-08-25T13:52:57.162Z,100196.00
2018-08-25T13:55:26.522Z,100205.00
2018-08-25T13:57:55.805Z,100205.00
2018-08-25T14:00:27.217Z,100211.00
2018-08-25T14:02:56.870Z,100209.00
2018-08-25T14:05:26.376Z,100211.00
2018-08-25T14:07:55.746Z,100207.00
2018-08-25T14:10:25.101Z,100206.00
2018-08-25T14:12:54.388Z,100211.00
2018-08-25T14:15:23.669Z,100219.00
2018-08-25T14:17:52.970Z,100231.00
2018-08-25T14:20:22.284Z,100237.00
2018-08-25T14:22:51.615Z,100254.00
2018-08-25T14:25:20.986Z,100257.00
2018-08-25T14:27:50.359Z,100257.00
2018-08-25T14:30:19.798Z,100253.00
2018-08-25T14:32:49.123Z,100250.00
2018-08-25T14:35:18.417Z,100268.00
2018-08-25T14:37:47.720Z,100271.00
2018-08-25T14:40:17.197Z,100258.00
2018-08-25T14:42:46.471Z,100269.00
2018-08-25T14:45:15.712Z,100265.00
2018-08-25T14:47:45.022Z,100263.00
2018-08-25T14:50:14.254Z,100261.00
2018-08-25T14:52:43.574Z,100263.00
2018-08-25T14:55:12.898Z,100265.00
2018-08-25T14:57:42.199Z,100272.00
2018-08-25T15:00:11.463Z,100281.00
2018-08-25T15:02:40.770Z,100273.00
2018-08-25T15:05:10.032Z,100267.00
2018-08-25T15:07:39.369Z,100268.00
2018-08-25T15:10:08.811Z,100273.00
2018-08-25T15:12:38.128Z,100266.00
2018-08-25T15:15:07.473Z,100265.00
2018-08-25T15:17:36.736Z,100258.00
2018-08-25T15:20:06.339Z,100264.00
2018-08-25T15:22:35.587Z,100274.00
2018-08-25T15:25:04.936Z,100284.00
2018-08-25T15:27:34.759Z,100312.00
2018-08-25T15:30:04.204Z,100326.00
2018-08-25T15:32:33.451Z,100341.00
2018-08-25T15:35:03.174Z,100315.00
2018-08-25T15:37:32.559Z,100325.00
2018-08-25T15:40:01.914Z,100321.00
2018-08-25T15:42:31.139Z,100330.00
2018-08-25T15:45:00.798Z,100317.00
2018-08-25T15:47:30.106Z,100305.00
2018-08-25T15:49:59.368Z,100307.00
2018-08-25T15:52:28.708Z,100307.00
2018-08-25T15:54:58.074Z,100295.00
2018-08-25T15:57:27.415Z,100307.00
2018-08-25T15:59:56.682Z,100309.00
2018-08-25T16:02:26.013Z,100312.00
2018-08-25T16:04:55.335Z,100307.00
2018-08-25T16:07:24.580Z,100303.00
2018-08-25T16:09:53.892Z,100308.00
2018-08-25T16:12:23.265Z,100302.00
2018-08-25T16:14:53.526Z,100315.00
2018-08-25T16:17:22.771Z,100315.00
2018-08-25T16:19:52.137Z,100316.00
2018-08-25T16:22:21.318Z,100311.00
2018-08-25T16:24:50.618Z,100323.00
2018-08-25T16:27:19.909Z,100337.00
2018-08-25T16:29:49.653Z,100338.00
2018-08-25T16:32:18.911Z,100333.00
2018-08-25T16:34:48.163Z,100335.00
2018-08-25T16:37:17.535Z,100345.00
2018-08-25T16:39:46.904Z,100352.00
2018-08-25T16:42:16.234Z,100355.00
2018-08-25T16:44:46.613Z,100356.00
2018-08-25T16:47:15.966Z,100356.00
2018-08-25T16:49:45.254Z,100367.00
2018-08-25T16:52:14.567Z,100355.00
2018-08-25T16:54:43.939Z,100374.00
2018-08-25T16:57:13.185Z,100363.00
2018-08-25T16:59:42.872Z,100366.00
2018-08-25T17:02:12.345Z,100361.00
2018-08-25T17:04:41.676Z,100362.00
2018-08-25T17:07:10.999Z,100369.00
2018-08-25T17:09:40.452Z,100370.00
2018-08-25T17:12:10.009Z,100375.00
2018-08-25T17:14:39.270Z,100379.00
2018-08-25T17:17:08.618Z,100377.00
2018-08-25T17:19:37.951Z,100383.00
2018-08-25T17:22:07.404Z,100394.00
2018-08-25T17:24:37.079Z,100386.00
2018-08-25T17:27:06.497Z,100386.00
2018-08-25T17:29:35.880Z,100391.00
2018-08-25T17:32:05.299Z,100394.00
2018-08-25T17:34:34.668Z,100393.00
2018-08-25T17:37:04.006Z,100389.00
2018-08-25T17:39:33.327Z,100394.00
2018-08-25T17:42:02.592Z,100399.00
2018-08-25T17:44:31.868Z,100414.00
2018-08-25T17:47:01.154Z,100411.00
2018-08-25T17:49:30.522Z,100422.00
2018-08-25T17:51:59.831Z,100421.00
2018-08-25T17:54:29.166Z,100417.00
2018-08-25T17:56:58.612Z,100425.00
2018-08-25T17:59:27.853Z,100426.00
2018-08-25T18:01:57.195Z,100427.00
2018-08-25T18:04:26.532Z,100428.00
2018-08-25T18:06:55.819Z,100434.00
2018-08-25T18:09:25.180Z,100436.00
2018-08-25T18:11:55.117Z,100442.00
2018-08-25T18:14:24.412Z,100443.00
2018-08-25T18:16:53.759Z,100447.00
2018-08-25T18:19:23.072Z,100446.00
2018-08-25T18:21:52.324Z,100464.00
2018-08-25T18:24:21.575Z,100456.00
2018-08-25T18:26:50.818Z,100459.00
2018-08-25T18:29:20.098Z,100467.00
2018-08-25T18:31:49.483Z,100471.00
2018-08-25T18:34:18.675Z,100465.00
2018-08-25T18:36:48.076Z,100475.00
2018-08-25T18:39:17.477Z,100475.00
2018-08-25T18:41:46.749Z,100485.00
2018-08-25T18:44:16.056Z,100492.00
2018-08-25T18:46:45.420Z,100489.00
2018-08-25T18:49:14.797Z,100494.00
2018-08-25T18:51:44.058Z,100495.00
2018-08-25T18:54:13.456Z,100501.00
2018-08-25T18:56:42.805Z,100498.00
2018-08-25T18:59:12.229Z,100501.00
2018-08-25T19:01:41.510Z,100506.00
2018-08-25T19:04:10.758Z,100509.00
2018-08-25T19:06:40.086Z,100517.00
2018-08-25T19:09:09.653Z,100523.00
2018-08-25T19:11:38.910Z,100525.00
2018-08-25T19:14:08.398Z,100525.00
2018-08-25T19:16:37.929Z,100532.00
2018-08-25T19:19:07.582Z,100528.00
2018-08-25T19:21:36.823Z,100534.00
2018-08-25T19:24:06.224Z,100525.00
2018-08-25T19:26:35.467Z,100524.00
2018-08-25T19:29:05.005Z,100526.00
2018-08-25T19:31:34.569Z,100530.00
2018-08-25T19:34:04.309Z,100533.00
2018-08-25T19:36:33.675Z,100539.00
2018-08-25T19:39:03.052Z,100538.00
2018-08-25T19:41:32.342Z,100535.00
2018-08-25T19:44:02.004Z,100542.00
2018-08-25T19:46:34.676Z,100537.00
2018-08-25T19:49:04.231Z,100535.00
2018-08-25T19:51:33.615Z,100544.00
2018-08-25T19:54:02.921Z,100543.00
2018-08-25T19:56:32.203Z,100530.00
2018-08-25T19:59:01.510Z,100548.00
2018-08-25T20:01:30.811Z,100541.00
2018-08-25T20:04:00.132Z,100541.00
2018-08-25T20:06:29.404Z,100542.00
2018-08-25T20:08:58.816Z,100550.00
2018-08-25T20:11:28.047Z,100557.00
2018-08-25T20:13:57.404Z,100555.00
2018-08-25T20:16:26.671Z,100565.00
2018-08-25T20:18:56.110Z,100558.00
2018-08-25T20:21:25.427Z,100564.00
2018-08-25T20:23:54.735Z,100569.00
2018-08-25T20:26:24.207Z,100571.00
2018-08-25T20:28:53.486Z,100574.00
2018-08-25T20:31:22.785Z,100564.00
2018-08-25T20:33:52.045Z,100574.00
2018-08-25T20:36:21.381Z,100567.00
2018-08-25T20:38:50.719Z,100574.00
2018-08-25T20:41:19.954Z,100573.00
2018-08-25T20:43:49.226Z,100574.00
2018-08-25T20:46:18.507Z,100590.00
2018-08-25T20:48:47.960Z,100582.00
2018-08-25T20:51:17.259Z,100582.00
2018-08-25T20:53:46.596Z,100602.00
2018-08-25T20:56:15.811Z,100592.00
2018-08-25T20:58:45.103Z,100596.00
2018-08-25T21:01:14.426Z,100596.00
2018-08-25T21:03:43.726Z,100592.00
2018-08-25T21:06:13.038Z,100601.00
2018-08-25T21:08:42.336Z,100591.00
2018-08-25T21:11:12.167Z,100605.00
2018-08-25T21:13:41.407Z,100606.00
2018-08-25T21:16:12.031Z,100618.00
2018-08-25T21:18:41.375Z,100612.00
2018-08-25T21:21:10.673Z,100609.00
2018-08-25T21:23:40.101Z,100616.00
2018-08-25T21:26:09.516Z,100615.00
2018-08-25T21:28:38.879Z,100619.00
2018-08-25T21:31:08.276Z,100618.00
2018-08-25T21:33:37.582Z,100621.00
2018-08-25T21:36:07.000Z,100619.00
2018-08-25T21:38:36.371Z,100625.00
2018-08-25T21:41:05.706Z,100629.00
2018-08-25T21:43:35.043Z,100628.00
2018-08-25T21:46:04.359Z,100625.00
2018-08-25T21:48:33.763Z,100627.00
2018-08-25T21:51:03.144Z,100618.00
2018-08-25T21:53:32.450Z,100625.00
2018-08-25T21:56:01.891Z,100633.00
2018-08-25T21:58:31.232Z,100641.00
2018-08-25T22:01:00.547Z,100643.00
2018-08-25T22:03:29.858Z,100644.00
2018-08-25T22:05:59.103Z,100636.00
2018-08-25T22:08:28.474Z,100650.00
2018-08-25T22:10:57.878Z,100644.00
2018-08-25T22:13:27.151Z,100637.00
2018-08-25T22:15:56.488Z,100635.00
2018-08-25T22:18:25.831Z,100643.00
2018-08-25T22:20:55.074Z,100641.00
2018-08-25T22:23:24.381Z,100641.00
2018-08-25T22:25:53.617Z,100637.00
2018-08-25T22:28:22.849Z,100636.00
2018-08-25T22:30:52.213Z,100646.00
2018-08-25T22:33:21.559Z,100653.00
2018-08-25T22:35:50.947Z,100653.00
2018-08-25T22:38:20.321Z,100649.00
2018-08-25T22:40:50.612Z,100650.00
2018-08-25T22:43:19.849Z,100655.00
2018-08-25T22:45:49.147Z,100650.00
2018-08-25T22:48:18.594Z,100648.00
2018-08-25T22:50:47.944Z,100657.00
2018-08-25T22:53:17.275Z,100665.00
2018-08-25T22:55:46.593Z,100668.00
2018-08-25T22:58:15.870Z,100665.00
2018-08-25T23:00:45.170Z,100662.00
2018-08-25T23:03:14.453Z,100670.00
2018-08-25T23:05:43.742Z,100673.00
2018-08-25T23:08:13.016Z,100661.00
2018-08-25T23:10:42.279Z,100670.00
2018-08-25T23:13:11.620Z,100671.00
2018-08-25T23:15:41.013Z,100672.00
2018-08-25T23:18:10.280Z,100670.00
2018-08-25T23:20:39.703Z,100659.00
2018-08-25T23:23:09.037Z,100666.00
2018-08-25T23:25:38.326Z,100660.00
2018-08-25T23:28:07.755Z,100665.00
2018-08-25T23:30:44.843Z,100670.00
2018-08-25T23:33:14.115Z,100671.00
2018-08-25T23:35:43.488Z,100682.00
2018-08-25T23:38:13.061Z,100678.00
2018-08-25T23:40:42.347Z,100682.00
2018-08-25T23:43:11.615Z,100680.00
2018-08-25T23:45:40.942Z,100683.00
2018-08-25T23:48:10.335Z,100684.00
2018-08-25T23:50:39.891Z,100691.00
2018-08-25T23:53:09.194Z,100692.00
2018-08-25T23:55:38.526Z,100691.00
2018-08-25T23:58:07.799Z,100685.00
